createdAt,value
2018-12-20T00:00:12.887Z,995.03
2018-12-20T00:01:12.722Z,995.09
2018-12-20T00:02:12.711Z,995.10
2018-12-20T00:03:12.882Z,995.08
2018-12-20T00:04:12.822Z,995.08
2018-12-20T00:05:12.755Z,995.08
2018-12-20T00:06:12.836Z,995.10
2018-12-20T00:07:12.656Z,995.14
2018-12-20T00:08:12.695Z,995.18
2018-12-20T00:09:12.675Z,995.15
2018-12-20T00:10:12.675Z,995.16
2018-12-20T00:11:12.641Z,995.20
2018-12-20T00:12:12.603Z,995.20
2018-12-20T00:13:12.604Z,995.24
2018-12-20T00:14:12.609Z,995.16
2018-12-20T00:15:12.638Z,995.20
2018-12-20T00:16:12.559Z,995.14
2018-12-20T00:17:12.664Z,995.06
2018-12-20T00:18:12.583Z,995.05
2018-12-20T00:19:12.546Z,995.03
2018-12-20T00:20:12.513Z,994.99
2018-12-20T00:21:12.552Z,995.00
2018-12-20T00:22:12.612Z,994.98
2018-12-20T00:23:12.597Z,994.90
2018-12-20T00:24:12.487Z,994.90
2018-12-20T00:25:12.547Z,994.89
2018-12-20T00:26:12.544Z,994.87
2018-12-20T00:27:12.435Z,994.84
2018-12-20T00:28:12.429Z,994.84
2018-12-20T00:29:12.450Z,994.89
2018-12-20T00:30:12.446Z,994.91
2018-12-20T00:31:13.728Z,994.91
2018-12-20T00:32:12.477Z,994.90
2018-12-20T00:33:12.478Z,994.94
2018-12-20T00:34:12.410Z,994.92
2018-12-20T00:35:12.545Z,994.90
2018-12-20T00:36:12.351Z,994.90
2018-12-20T00:37:12.373Z,994.88
2018-12-20T00:38:12.549Z,994.89
2018-12-20T00:39:12.423Z,994.85
2018-12-20T00:40:12.318Z,994.87
2018-12-20T00:41:12.417Z,994.87
2018-12-20T00:42:12.285Z,994.89
2018-12-20T00:43:12.287Z,994.88
2018-12-20T00:44:12.320Z,994.84
2018-12-20T00:45:12.308Z,994.89
2018-12-20T00:46:12.268Z,994.87
2018-12-20T00:47:12.262Z,994.93
2018-12-20T00:48:12.203Z,994.95
2018-12-20T00:49:12.360Z,994.93
2018-12-20T00:50:12.241Z,994.93
2018-12-20T00:51:12.256Z,994.94
2018-12-20T00:52:12.158Z,994.93
2018-12-20T00:53:12.322Z,994.95
2018-12-20T00:54:12.136Z,994.97
2018-12-20T00:55:12.227Z,994.96
2018-12-20T00:56:12.169Z,994.95
2018-12-20T00:57:12.136Z,994.98
2018-12-20T00:58:12.172Z,994.98
2018-12-20T00:59:12.141Z,995.02
2018-12-20T01:00:12.201Z,995.04
2018-12-20T01:01:12.059Z,995.06
2018-12-20T01:02:12.100Z,995.04
2018-12-20T01:03:12.223Z,995.03
2018-12-20T01:04:12.052Z,995.08
2018-12-20T01:05:20.098Z,995.08
2018-12-20T01:06:12.003Z,995.08
2018-12-20T01:07:20.074Z,995.05
2018-12-20T01:08:11.986Z,995.01
2018-12-20T01:09:12.014Z,995.01
2018-12-20T01:10:20.160Z,995.11
2018-12-20T01:11:12.136Z,995.04
2018-12-20T01:12:11.953Z,995.09
2018-12-20T01:13:20.488Z,995.08
2018-12-20T01:14:11.938Z,995.09
2018-12-20T01:15:11.903Z,995.13
2018-12-20T01:16:19.940Z,995.20
2018-12-20T01:17:11.995Z,995.22
2018-12-20T01:18:11.897Z,995.25
2018-12-20T01:19:11.935Z,995.26
2018-12-20T01:20:11.860Z,995.30
2018-12-20T01:21:11.869Z,995.35
2018-12-20T01:22:11.878Z,995.32
2018-12-20T01:23:11.853Z,995.31
2018-12-20T01:24:11.807Z,995.31
2018-12-20T01:25:11.956Z,995.30
2018-12-20T01:26:11.982Z,995.25
2018-12-20T01:27:11.897Z,995.30
2018-12-20T01:28:11.778Z,995.29
2018-12-20T01:29:11.855Z,995.24
2018-12-20T01:30:11.959Z,995.24
2018-12-20T01:31:11.751Z,995.26
2018-12-20T01:32:11.811Z,995.24
2018-12-20T01:33:11.756Z,995.23
2018-12-20T01:34:11.823Z,995.19
2018-12-20T01:35:11.722Z,995.26
2018-12-20T01:36:11.842Z,995.32
2018-12-20T01:37:11.758Z,995.21
2018-12-20T01:38:11.653Z,995.26
2018-12-20T01:39:11.773Z,995.25
2018-12-20T01:40:11.646Z,995.30
2018-12-20T01:41:11.738Z,995.40
2018-12-20T01:42:11.712Z,995.34
2018-12-20T01:43:11.604Z,995.33
2018-12-20T01:44:11.691Z,995.34
2018-12-20T01:45:11.680Z,995.29
2018-12-20T01:46:11.811Z,995.33
2018-12-20T01:47:11.599Z,995.38
2018-12-20T01:48:11.539Z,995.30
2018-12-20T01:49:11.529Z,995.37
2018-12-20T01:50:11.617Z,995.34
2018-12-20T01:51:11.616Z,995.35
2018-12-20T01:52:11.493Z,995.33
2018-12-20T01:53:11.499Z,995.35
2018-12-20T01:54:11.574Z,995.34
2018-12-20T01:55:11.574Z,995.31
2018-12-20T01:56:11.474Z,995.27
2018-12-20T01:57:11.561Z,995.25
2018-12-20T01:58:11.441Z,995.25
2018-12-20T01:59:11.431Z,995.27
2018-12-20T02:00:11.602Z,995.26
2018-12-20T02:01:11.550Z,995.24
2018-12-20T02:02:11.383Z,995.27
2018-12-20T02:03:11.396Z,995.26
2018-12-20T02:04:11.631Z,995.28
2018-12-20T02:05:11.374Z,995.26
2018-12-20T02:06:11.353Z,995.27
2018-12-20T02:07:11.476Z,995.29
2018-12-20T02:08:11.316Z,995.26
2018-12-20T02:09:11.577Z,995.28
2018-12-20T02:10:11.444Z,995.24
2018-12-20T02:11:11.330Z,995.23
2018-12-20T02:12:11.359Z,995.21
2018-12-20T02:13:11.478Z,995.25
2018-12-20T02:14:11.251Z,995.20
2018-12-20T02:15:11.287Z,995.20
2018-12-20T02:16:11.376Z,995.19
2018-12-20T02:17:11.216Z,995.19
2018-12-20T02:18:11.210Z,995.23
2018-12-20T02:19:11.218Z,995.24
2018-12-20T02:20:11.479Z,995.22
2018-12-20T02:21:11.231Z,995.20
2018-12-20T02:22:11.170Z,995.21
2018-12-20T02:23:11.338Z,995.20
2018-12-20T02:24:11.211Z,995.22
2018-12-20T02:25:11.141Z,995.18
2018-12-20T02:26:11.176Z,995.17
2018-12-20T02:27:11.146Z,995.17
2018-12-20T02:28:11.198Z,995.21
2018-12-20T02:29:11.205Z,995.14
2018-12-20T02:30:11.224Z,995.18
2018-12-20T02:31:11.321Z,995.14
2018-12-20T02:32:11.110Z,995.14
2018-12-20T02:33:11.063Z,995.11
2018-12-20T02:34:11.221Z,995.09
2018-12-20T02:35:11.112Z,995.11
2018-12-20T02:36:11.351Z,995.11
2018-12-20T02:37:10.997Z,995.09
2018-12-20T02:38:10.995Z,995.08
2018-12-20T02:39:11.017Z,995.07
2018-12-20T02:40:10.995Z,995.04
2018-12-20T02:41:11.034Z,995.04
2018-12-20T02:42:11.094Z,995.02
2018-12-20T02:43:10.946Z,995.04
2018-12-20T02:44:11.073Z,995.05
2018-12-20T02:45:11.181Z,995.02
2018-12-20T02:46:11.136Z,995.00
2018-12-20T02:47:10.943Z,995.04
2018-12-20T02:48:10.968Z,995.02
2018-12-20T02:49:10.864Z,995.01
2018-12-20T02:50:11.038Z,994.98
2018-12-20T02:51:10.907Z,994.98
2018-12-20T02:52:10.853Z,994.96
2018-12-20T02:53:10.933Z,994.91
2018-12-20T02:54:10.809Z,994.92
2018-12-20T02:55:11.002Z,994.91
2018-12-20T02:56:10.801Z,994.94
2018-12-20T02:57:10.817Z,994.91
2018-12-20T02:58:11.030Z,994.92
2018-12-20T02:59:10.761Z,994.98
2018-12-20T03:00:10.797Z,994.94
2018-12-20T03:01:10.863Z,994.98
2018-12-20T03:02:10.871Z,994.93
2018-12-20T03:03:10.845Z,994.92
2018-12-20T03:04:10.740Z,994.91
2018-12-20T03:05:10.736Z,994.94
2018-12-20T03:06:10.714Z,994.89
2018-12-20T03:07:10.690Z,994.92
2018-12-20T03:08:10.740Z,994.89
2018-12-20T03:09:10.658Z,994.88
2018-12-20T03:10:10.828Z,994.88
2018-12-20T03:11:10.660Z,994.90
2018-12-20T03:12:10.705Z,994.90
2018-12-20T03:13:10.673Z,994.85
2018-12-20T03:14:10.736Z,994.92
2018-12-20T03:15:19.682Z,994.86
2018-12-20T03:16:11.824Z,994.89
2018-12-20T03:17:10.658Z,994.94
2018-12-20T03:18:10.650Z,994.90
2018-12-20T03:19:10.562Z,994.90
2018-12-20T03:20:10.556Z,994.91
2018-12-20T03:21:10.550Z,994.92
2018-12-20T03:22:10.642Z,994.93
2018-12-20T03:23:10.517Z,994.93
2018-12-20T03:24:10.508Z,994.94
2018-12-20T03:25:10.772Z,994.90
2018-12-20T03:26:10.470Z,994.93
2018-12-20T03:27:10.469Z,994.90
2018-12-20T03:28:10.698Z,994.90
2018-12-20T03:29:10.512Z,994.88
2018-12-20T03:30:10.412Z,994.89
2018-12-20T03:31:10.562Z,994.82
2018-12-20T03:32:10.567Z,994.86
2018-12-20T03:33:10.811Z,994.83
2018-12-20T03:34:10.508Z,994.82
2018-12-20T03:35:10.386Z,994.79
2018-12-20T03:36:10.407Z,994.81
2018-12-20T03:37:10.607Z,994.81
2018-12-20T03:38:10.350Z,994.80
2018-12-20T03:39:10.441Z,994.84
2018-12-20T03:40:10.394Z,994.81
2018-12-20T03:41:10.318Z,994.84
2018-12-20T03:42:10.344Z,994.83
2018-12-20T03:43:10.265Z,994.85
2018-12-20T03:44:10.280Z,994.80
2018-12-20T03:45:10.334Z,994.79
2018-12-20T03:46:10.443Z,994.76
2018-12-20T03:47:10.361Z,994.74
2018-12-20T03:48:10.397Z,994.73
2018-12-20T03:49:10.477Z,994.71
2018-12-20T03:50:10.209Z,994.69
2018-12-20T03:51:10.200Z,994.69
2018-12-20T03:52:10.373Z,994.67
2018-12-20T03:53:10.170Z,994.66
2018-12-20T03:54:10.413Z,994.62
2018-12-20T03:55:10.440Z,994.63
2018-12-20T03:56:10.240Z,994.65
2018-12-20T03:57:10.247Z,994.66
2018-12-20T03:58:10.186Z,994.63
2018-12-20T03:59:10.293Z,994.56
2018-12-20T04:00:10.351Z,994.57
2018-12-20T04:01:10.080Z,994.56
2018-12-20T04:02:10.121Z,994.55
2018-12-20T04:03:10.377Z,994.56
2018-12-20T04:04:10.066Z,994.53
2018-12-20T04:05:10.216Z,994.58
2018-12-20T04:06:10.188Z,994.53
2018-12-20T04:07:10.000Z,994.56
2018-12-20T04:08:10.121Z,994.54
2018-12-20T04:09:10.275Z,994.58
2018-12-20T04:10:10.155Z,994.55
2018-12-20T04:11:10.060Z,994.57
2018-12-20T04:12:09.944Z,994.51
2018-12-20T04:13:09.934Z,994.54
2018-12-20T04:14:09.964Z,994.54
2018-12-20T04:15:10.054Z,994.56
2018-12-20T04:16:09.901Z,994.54
2018-12-20T04:17:09.936Z,994.61
2018-12-20T04:18:09.983Z,994.61
2018-12-20T04:19:10.148Z,994.59
2018-12-20T04:20:10.299Z,994.58
2018-12-20T04:21:10.016Z,994.62
2018-12-20T04:22:09.860Z,994.64
2018-12-20T04:23:09.830Z,994.69
2018-12-20T04:24:09.861Z,994.68
2018-12-20T04:25:09.972Z,994.72
2018-12-20T04:26:09.829Z,994.71
2018-12-20T04:27:09.865Z,994.65
2018-12-20T04:28:09.787Z,994.62
2018-12-20T04:29:09.934Z,994.69
2018-12-20T04:30:09.979Z,994.65
2018-12-20T04:31:09.843Z,994.69
2018-12-20T04:32:09.844Z,994.67
2018-12-20T04:33:09.871Z,994.61
2018-12-20T04:34:09.823Z,994.61
2018-12-20T04:35:09.895Z,994.64
2018-12-20T04:36:09.836Z,994.64
2018-12-20T04:37:09.910Z,994.65
2018-12-20T04:38:09.808Z,994.64
2018-12-20T04:39:09.761Z,994.68
2018-12-20T04:40:09.677Z,994.67
2018-12-20T04:41:09.624Z,994.67
2018-12-20T04:42:09.642Z,994.64
2018-12-20T04:43:09.675Z,994.69
2018-12-20T04:44:09.589Z,994.70
2018-12-20T04:45:09.580Z,994.64
2018-12-20T04:46:09.630Z,994.72
2018-12-20T04:47:09.727Z,994.77
2018-12-20T04:48:09.678Z,994.76
2018-12-20T04:49:09.743Z,994.73
2018-12-20T04:50:09.583Z,994.75
2018-12-20T04:51:09.524Z,994.74
2018-12-20T04:52:09.521Z,994.71
2018-12-20T04:53:09.653Z,994.74
2018-12-20T04:54:09.490Z,994.75
2018-12-20T04:55:09.520Z,994.77
2018-12-20T04:56:09.461Z,994.82
2018-12-20T04:57:09.447Z,994.89
2018-12-20T04:58:09.663Z,994.85
2018-12-20T04:59:09.764Z,994.85
2018-12-20T05:00:09.633Z,994.76
2018-12-20T05:01:09.418Z,994.78
2018-12-20T05:02:09.442Z,994.79
2018-12-20T05:03:09.546Z,994.82
2018-12-20T05:04:09.506Z,994.84
2018-12-20T05:05:09.437Z,994.87
2018-12-20T05:06:09.371Z,994.87
2018-12-20T05:07:09.412Z,994.83
2018-12-20T05:08:09.664Z,994.78
2018-12-20T05:09:09.574Z,994.81
2018-12-20T05:10:09.586Z,994.84
2018-12-20T05:11:09.292Z,994.83
2018-12-20T05:12:09.573Z,994.82
2018-12-20T05:13:09.336Z,994.78
2018-12-20T05:14:09.428Z,994.74
2018-12-20T05:15:09.265Z,994.74
2018-12-20T05:16:09.394Z,994.65
2018-12-20T05:17:09.224Z,994.67
2018-12-20T05:18:09.258Z,994.67
2018-12-20T05:19:09.242Z,994.71
2018-12-20T05:20:09.206Z,994.72
2018-12-20T05:21:09.185Z,994.79
2018-12-20T05:22:09.256Z,994.82
2018-12-20T05:23:09.183Z,994.82
2018-12-20T05:24:09.165Z,994.81
2018-12-20T05:25:09.226Z,994.80
2018-12-20T05:26:09.124Z,994.83
2018-12-20T05:27:09.225Z,994.83
2018-12-20T05:28:09.125Z,994.80
2018-12-20T05:29:09.314Z,994.84
2018-12-20T05:30:09.157Z,994.82
2018-12-20T05:31:09.102Z,994.90
2018-12-20T05:32:09.132Z,994.89
2018-12-20T05:33:09.048Z,994.89
2018-12-20T05:34:09.060Z,994.93
2018-12-20T05:35:09.113Z,994.94
2018-12-20T05:36:09.025Z,994.92
2018-12-20T05:37:09.255Z,994.90
2018-12-20T05:38:09.193Z,994.92
2018-12-20T05:39:09.016Z,994.94
2018-12-20T05:40:08.983Z,994.92
2018-12-20T05:41:09.245Z,994.87
2018-12-20T05:42:08.963Z,994.94
2018-12-20T05:43:08.980Z,994.94
2018-12-20T05:44:08.943Z,994.91
2018-12-20T05:45:09.076Z,994.90
2018-12-20T05:46:09.120Z,994.89
2018-12-20T05:47:08.962Z,994.88
2018-12-20T05:48:08.909Z,994.88
2018-12-20T05:49:08.870Z,994.85
2018-12-20T05:50:08.900Z,994.88
2018-12-20T05:51:08.847Z,994.86
2018-12-20T05:52:08.862Z,994.85
2018-12-20T05:53:08.836Z,994.82
2018-12-20T05:54:08.854Z,994.81
2018-12-20T05:55:09.038Z,994.85
2018-12-20T05:56:08.818Z,994.83
2018-12-20T05:57:09.038Z,994.84
2018-12-20T05:58:08.776Z,994.80
2018-12-20T05:59:08.759Z,994.83
2018-12-20T06:00:08.918Z,994.79
2018-12-20T06:01:08.737Z,994.83
2018-12-20T06:02:08.860Z,994.80
2018-12-20T06:03:08.928Z,994.81
2018-12-20T06:04:08.705Z,994.85
2018-12-20T06:05:08.787Z,994.82
2018-12-20T06:06:08.714Z,994.79
2018-12-20T06:07:08.778Z,994.82
2018-12-20T06:08:08.845Z,994.81
2018-12-20T06:09:08.675Z,994.82
2018-12-20T06:10:08.675Z,994.80
2018-12-20T06:11:08.627Z,994.82
2018-12-20T06:12:08.773Z,994.81
2018-12-20T06:13:08.632Z,994.81
2018-12-20T06:14:08.827Z,994.82
2018-12-20T06:15:08.608Z,994.88
2018-12-20T06:16:12.625Z,994.84
2018-12-20T06:17:08.570Z,994.89
2018-12-20T06:18:08.554Z,994.87
2018-12-20T06:19:08.562Z,994.90
2018-12-20T06:20:08.797Z,994.90
2018-12-20T06:21:08.601Z,994.93
2018-12-20T06:22:08.747Z,994.93
2018-12-20T06:23:08.493Z,994.88
2018-12-20T06:24:08.483Z,994.93
2018-12-20T06:25:08.499Z,994.95
2018-12-20T06:26:08.479Z,994.90
2018-12-20T06:27:08.453Z,994.94
2018-12-20T06:28:08.460Z,994.94
2018-12-20T06:29:08.468Z,994.98
2018-12-20T06:30:08.422Z,994.97
2018-12-20T06:31:08.404Z,994.94
2018-12-20T06:32:08.393Z,994.92
2018-12-20T06:33:08.390Z,994.93
2018-12-20T06:34:08.410Z,994.92
2018-12-20T06:35:08.370Z,994.91
2018-12-20T06:36:08.355Z,994.93
2018-12-20T06:37:08.341Z,994.88
2018-12-20T06:38:08.351Z,994.92
2018-12-20T06:39:08.325Z,994.88
2018-12-20T06:40:08.310Z,994.92
2018-12-20T06:41:08.332Z,994.94
2018-12-20T06:42:08.298Z,994.91
2018-12-20T06:43:08.293Z,994.86
2018-12-20T06:44:08.294Z,994.87
2018-12-20T06:45:08.269Z,994.86
2018-12-20T06:46:08.248Z,994.86
2018-12-20T06:47:08.232Z,994.79
2018-12-20T06:48:08.996Z,994.85
2018-12-20T06:49:08.249Z,994.84
2018-12-20T06:50:08.199Z,994.86
2018-12-20T06:51:08.203Z,994.82
2018-12-20T06:52:08.181Z,994.76
2018-12-20T06:53:08.206Z,994.75
2018-12-20T06:54:08.192Z,994.84
2018-12-20T06:55:08.143Z,994.79
2018-12-20T06:56:08.134Z,994.84
2018-12-20T06:57:08.117Z,994.84
2018-12-20T06:58:08.135Z,994.88
2018-12-20T06:59:08.130Z,994.84
2018-12-20T07:00:08.112Z,994.85
2018-12-20T07:01:08.074Z,994.86
2018-12-20T07:02:08.070Z,994.85
2018-12-20T07:03:08.051Z,994.87
2018-12-20T07:04:08.058Z,994.85
2018-12-20T07:05:08.060Z,994.81
2018-12-20T07:06:08.023Z,994.78
2018-12-20T07:07:08.008Z,994.80
2018-12-20T07:08:08.011Z,994.78
2018-12-20T07:09:07.987Z,994.79
2018-12-20T07:10:07.993Z,994.83
2018-12-20T07:11:07.963Z,994.80
2018-12-20T07:12:08.047Z,994.84
2018-12-20T07:13:07.964Z,994.82
2018-12-20T07:14:07.945Z,994.83
2018-12-20T07:15:07.920Z,994.86
2018-12-20T07:16:07.915Z,994.85
2018-12-20T07:17:07.901Z,994.85
2018-12-20T07:18:07.934Z,994.82
2018-12-20T07:19:07.877Z,994.81
2018-12-20T07:20:07.889Z,994.80
2018-12-20T07:21:07.854Z,994.83
2018-12-20T07:22:07.840Z,994.84
2018-12-20T07:23:07.832Z,994.85
2018-12-20T07:24:07.865Z,994.84
2018-12-20T07:25:07.812Z,994.83
2018-12-20T07:26:07.805Z,994.83
2018-12-20T07:27:07.789Z,994.81
2018-12-20T07:28:07.779Z,994.79
2018-12-20T07:29:07.791Z,994.80
2018-12-20T07:30:07.768Z,994.77
2018-12-20T07:31:07.748Z,994.80
2018-12-20T07:32:07.734Z,994.81
2018-12-20T07:33:15.793Z,994.78
2018-12-20T07:34:07.726Z,994.81
2018-12-20T07:35:07.698Z,994.83
2018-12-20T07:36:07.691Z,994.83
2018-12-20T07:37:07.699Z,994.83
2018-12-20T07:38:07.693Z,994.78
2018-12-20T07:39:07.670Z,994.75
2018-12-20T07:40:07.649Z,994.80
2018-12-20T07:41:07.669Z,994.75
2018-12-20T07:42:07.625Z,994.74
2018-12-20T07:43:07.648Z,994.78
2018-12-20T07:44:07.599Z,994.71
2018-12-20T07:45:07.588Z,994.73
2018-12-20T07:46:07.609Z,994.67
2018-12-20T07:47:07.573Z,994.71
2018-12-20T07:48:07.579Z,994.65
2018-12-20T07:49:07.551Z,994.68
2018-12-20T07:50:07.558Z,994.69
2018-12-20T07:51:07.523Z,994.67
2018-12-20T07:52:07.511Z,994.69
2018-12-20T07:53:07.499Z,994.72
2018-12-20T07:54:07.494Z,994.72
2018-12-20T07:55:07.503Z,994.70
2018-12-20T07:56:07.520Z,994.74
2018-12-20T07:57:07.459Z,994.74
2018-12-20T07:58:07.447Z,994.75
2018-12-20T07:59:07.436Z,994.73
2018-12-20T08:00:07.535Z,994.77
2018-12-20T08:01:07.434Z,994.75
2018-12-20T08:02:07.400Z,994.71
2018-12-20T08:03:07.388Z,994.72
2018-12-20T08:04:07.381Z,994.76
2018-12-20T08:05:07.391Z,994.79
2018-12-20T08:06:07.371Z,994.75
2018-12-20T08:07:07.351Z,994.75
2018-12-20T08:08:07.340Z,994.73
2018-12-20T08:09:07.352Z,994.72
2018-12-20T08:10:07.316Z,994.74
2018-12-20T08:11:07.305Z,994.76
2018-12-20T08:12:07.309Z,994.80
2018-12-20T08:13:07.279Z,994.82
2018-12-20T08:14:07.368Z,994.81
2018-12-20T08:15:07.272Z,994.81
2018-12-20T08:16:07.247Z,994.77
2018-12-20T08:17:07.238Z,994.81
2018-12-20T08:18:07.250Z,994.80
2018-12-20T08:19:07.213Z,994.72
2018-12-20T08:20:07.212Z,994.81
2018-12-20T08:21:07.214Z,994.81
2018-12-20T08:22:07.211Z,994.79
2018-12-20T08:23:07.172Z,994.78
2018-12-20T08:24:07.168Z,994.79
2018-12-20T08:25:07.149Z,994.77
2018-12-20T08:26:07.187Z,994.79
2018-12-20T08:27:07.131Z,994.81
2018-12-20T08:28:07.114Z,994.79
2018-12-20T08:29:07.108Z,994.82
2018-12-20T08:30:07.109Z,994.78
2018-12-20T08:31:07.119Z,994.81
2018-12-20T08:32:07.097Z,994.83
2018-12-20T08:33:07.058Z,994.80
2018-12-20T08:34:07.051Z,994.82
2018-12-20T08:35:07.061Z,994.83
2018-12-20T08:36:07.051Z,994.85
2018-12-20T08:37:07.014Z,994.86
2018-12-20T08:38:07.018Z,994.88
2018-12-20T08:39:06.993Z,994.87
2018-12-20T08:40:07.008Z,994.87
2018-12-20T08:41:09.035Z,994.91
2018-12-20T08:42:06.984Z,994.87
2018-12-20T08:43:06.995Z,994.89
2018-12-20T08:44:06.944Z,994.91
2018-12-20T08:45:06.929Z,994.92
2018-12-20T08:46:06.914Z,994.91
2018-12-20T08:47:06.920Z,994.86
2018-12-20T08:48:06.927Z,994.87
2018-12-20T08:49:06.883Z,994.86
2018-12-20T08:50:06.872Z,994.83
2018-12-20T08:51:06.860Z,994.84
2018-12-20T08:52:06.881Z,994.84
2018-12-20T08:53:06.854Z,994.80
2018-12-20T08:54:06.840Z,994.83
2018-12-20T08:55:06.815Z,994.82
2018-12-20T08:56:06.839Z,994.84
2018-12-20T08:57:06.811Z,994.83
2018-12-20T08:58:06.802Z,994.83
2018-12-20T08:59:06.804Z,994.82
2018-12-20T09:00:06.768Z,994.85
2018-12-20T09:01:06.747Z,994.80
2018-12-20T09:02:06.744Z,994.82
2018-12-20T09:03:06.759Z,994.85
2018-12-20T09:04:06.737Z,994.89
2018-12-20T09:05:06.733Z,994.87
2018-12-20T09:06:06.694Z,994.89
2018-12-20T09:07:06.685Z,994.92
2018-12-20T09:08:06.695Z,994.87
2018-12-20T09:09:06.664Z,994.89
2018-12-20T09:10:06.672Z,994.92
2018-12-20T09:11:06.640Z,994.87
2018-12-20T09:12:06.627Z,994.91
2018-12-20T09:13:09.727Z,994.94
2018-12-20T09:14:06.605Z,994.89
2018-12-20T09:15:06.617Z,994.95
2018-12-20T09:16:06.598Z,994.94
2018-12-20T09:17:06.572Z,994.94
2018-12-20T09:18:06.563Z,994.97
2018-12-20T09:19:06.563Z,994.95
2018-12-20T09:20:06.565Z,994.95
2018-12-20T09:21:06.533Z,994.93
2018-12-20T09:22:06.544Z,994.94
2018-12-20T09:23:06.536Z,994.99
2018-12-20T09:24:06.523Z,994.96
2018-12-20T09:25:06.548Z,994.97
2018-12-20T09:26:06.489Z,994.93
2018-12-20T09:27:06.466Z,994.98
2018-12-20T09:28:06.459Z,994.99
2018-12-20T09:29:06.500Z,995.03
2018-12-20T09:30:06.473Z,995.00
2018-12-20T09:31:06.427Z,994.99
2018-12-20T09:32:06.425Z,994.98
2018-12-20T09:33:06.410Z,995.04
2018-12-20T09:34:06.399Z,995.02
2018-12-20T09:35:06.409Z,995.06
2018-12-20T09:36:06.393Z,995.04
2018-12-20T09:37:06.354Z,995.07
2018-12-20T09:38:06.345Z,995.04
2018-12-20T09:39:06.371Z,995.06
2018-12-20T09:40:06.356Z,995.12
2018-12-20T09:41:06.428Z,995.07
2018-12-20T09:42:06.301Z,995.09
2018-12-20T09:43:06.288Z,995.05
2018-12-20T09:44:06.278Z,995.09
2018-12-20T09:45:06.298Z,995.09
2018-12-20T09:46:06.258Z,995.06
2018-12-20T09:47:11.634Z,995.09
2018-12-20T09:48:07.246Z,995.06
2018-12-20T09:49:06.224Z,995.04
2018-12-20T09:50:06.243Z,995.02
2018-12-20T09:51:06.206Z,995.07
2018-12-20T09:52:06.188Z,995.02
2018-12-20T09:53:06.206Z,995.03
2018-12-20T09:54:06.166Z,995.07
2018-12-20T09:55:06.154Z,995.07
2018-12-20T09:56:06.167Z,995.07
2018-12-20T09:57:06.144Z,995.01
2018-12-20T09:58:06.123Z,995.03
2018-12-20T09:59:06.170Z,995.02
2018-12-20T10:00:06.099Z,995.02
2018-12-20T10:01:06.088Z,995.05
2018-12-20T10:02:06.082Z,995.04
2018-12-20T10:03:06.067Z,995.05
2018-12-20T10:04:06.111Z,995.05
2018-12-20T10:05:06.050Z,995.04
2018-12-20T10:06:06.140Z,995.05
2018-12-20T10:07:06.022Z,995.07
2018-12-20T10:08:06.030Z,995.04
2018-12-20T10:09:06.027Z,995.04
2018-12-20T10:10:06.029Z,995.04
2018-12-20T10:11:05.980Z,995.05
2018-12-20T10:12:05.968Z,995.02
2018-12-20T10:13:05.965Z,995.02
2018-12-20T10:14:05.952Z,995.06
2018-12-20T10:15:05.969Z,995.01
2018-12-20T10:16:05.927Z,995.07
2018-12-20T10:17:05.929Z,995.07
2018-12-20T10:18:05.903Z,995.04
2018-12-20T10:19:05.891Z,995.03
2018-12-20T10:20:05.926Z,995.02
2018-12-20T10:21:05.893Z,995.05
2018-12-20T10:22:05.866Z,995.02
2018-12-20T10:23:05.846Z,995.01
2018-12-20T10:24:05.835Z,995.01
2018-12-20T10:25:05.854Z,994.93
2018-12-20T10:26:05.824Z,994.91
2018-12-20T10:27:05.807Z,994.87
2018-12-20T10:28:05.789Z,994.81
2018-12-20T10:29:05.813Z,994.75
2018-12-20T10:30:05.768Z,994.79
2018-12-20T10:31:05.765Z,994.83
2018-12-20T10:32:05.778Z,994.83
2018-12-20T10:33:05.747Z,994.82
2018-12-20T10:34:05.725Z,994.85
2018-12-20T10:35:05.719Z,994.79
2018-12-20T10:36:05.712Z,994.76
2018-12-20T10:37:05.711Z,994.83
2018-12-20T10:38:05.685Z,994.81
2018-12-20T10:39:05.675Z,994.84
2018-12-20T10:40:05.658Z,994.83
2018-12-20T10:41:05.650Z,994.81
2018-12-20T10:42:05.666Z,994.80
2018-12-20T10:43:05.630Z,994.78
2018-12-20T10:44:05.685Z,994.79
2018-12-20T10:45:05.603Z,994.73
2018-12-20T10:46:05.620Z,994.76
2018-12-20T10:47:05.618Z,994.73
2018-12-20T10:48:05.574Z,994.73
2018-12-20T10:49:05.685Z,994.71
2018-12-20T10:50:05.559Z,994.65
2018-12-20T10:51:05.553Z,994.68
2018-12-20T10:52:05.562Z,994.66
2018-12-20T10:53:05.514Z,994.69
2018-12-20T10:54:05.620Z,994.65
2018-12-20T10:55:05.572Z,994.64
2018-12-20T10:56:06.106Z,994.65
2018-12-20T10:57:05.497Z,994.61
2018-12-20T10:58:05.612Z,994.61
2018-12-20T10:59:05.476Z,994.65
2018-12-20T11:00:05.493Z,994.61
2018-12-20T11:01:05.442Z,994.61
2018-12-20T11:02:05.416Z,994.59
2018-12-20T11:03:05.403Z,994.58
2018-12-20T11:04:05.428Z,994.55
2018-12-20T11:05:13.115Z,994.53
2018-12-20T11:06:05.381Z,994.50
2018-12-20T11:07:05.362Z,994.55
2018-12-20T11:08:05.403Z,994.50
2018-12-20T11:09:05.374Z,994.48
2018-12-20T11:10:05.342Z,994.47
2018-12-20T11:11:05.329Z,994.46
2018-12-20T11:12:05.309Z,994.44
2018-12-20T11:13:05.296Z,994.48
2018-12-20T11:14:05.332Z,994.46
2018-12-20T11:15:05.274Z,994.50
2018-12-20T11:16:05.264Z,994.49
2018-12-20T11:17:05.256Z,994.42
2018-12-20T11:18:05.278Z,994.44
2018-12-20T11:19:05.231Z,994.42
2018-12-20T11:20:05.227Z,994.46
2018-12-20T11:21:05.207Z,994.46
2018-12-20T11:22:05.199Z,994.40
2018-12-20T11:23:05.222Z,994.43
2018-12-20T11:24:05.192Z,994.46
2018-12-20T11:25:05.173Z,994.46
2018-12-20T11:26:05.232Z,994.45
2018-12-20T11:27:05.142Z,994.41
2018-12-20T11:28:05.132Z,994.38
2018-12-20T11:29:05.181Z,994.35
2018-12-20T11:30:05.172Z,994.35
2018-12-20T11:31:05.230Z,994.35
2018-12-20T11:32:05.087Z,994.37
2018-12-20T11:33:05.137Z,994.36
2018-12-20T11:34:05.113Z,994.38
2018-12-20T11:35:05.104Z,994.39
2018-12-20T11:36:05.219Z,994.37
2018-12-20T11:37:05.047Z,994.33
2018-12-20T11:38:05.037Z,994.34
2018-12-20T11:39:08.447Z,994.31
2018-12-20T11:40:12.082Z,994.33
2018-12-20T11:41:05.010Z,994.32
2018-12-20T11:42:05.031Z,994.36
2018-12-20T11:43:04.963Z,994.31
2018-12-20T11:44:05.010Z,994.31
2018-12-20T11:45:04.978Z,994.30
2018-12-20T11:46:04.931Z,994.31
2018-12-20T11:47:04.936Z,994.36
2018-12-20T11:48:04.908Z,994.33
2018-12-20T11:49:04.916Z,994.32
2018-12-20T11:50:04.909Z,994.31
2018-12-20T11:51:04.878Z,994.31
2018-12-20T11:52:04.889Z,994.31
2018-12-20T11:53:04.892Z,994.26
2018-12-20T11:54:04.844Z,994.26
2018-12-20T11:55:04.829Z,994.25
2018-12-20T11:56:04.819Z,994.27
2018-12-20T11:57:04.808Z,994.29
2018-12-20T11:58:05.072Z,994.26
2018-12-20T11:59:04.808Z,994.23
2018-12-20T12:00:04.778Z,994.19
2018-12-20T12:01:04.847Z,994.19
2018-12-20T12:02:04.754Z,994.15
2018-12-20T12:03:04.772Z,994.16
2018-12-20T12:04:04.750Z,994.15
2018-12-20T12:05:04.723Z,994.16
2018-12-20T12:06:04.744Z,994.16
2018-12-20T12:07:04.765Z,994.16
2018-12-20T12:08:04.694Z,994.16
2018-12-20T12:09:04.677Z,994.14
2018-12-20T12:10:05.467Z,994.16
2018-12-20T12:11:04.767Z,994.16
2018-12-20T12:12:04.647Z,994.18
2018-12-20T12:13:04.639Z,994.15
2018-12-20T12:14:04.627Z,994.18
2018-12-20T12:15:04.627Z,994.15
2018-12-20T12:16:04.640Z,994.15
2018-12-20T12:17:04.587Z,994.19
2018-12-20T12:18:04.572Z,994.17
2018-12-20T12:19:04.570Z,994.18
2018-12-20T12:20:04.554Z,994.15
2018-12-20T12:21:04.581Z,994.19
2018-12-20T12:22:04.553Z,994.15
2018-12-20T12:23:04.651Z,994.15
2018-12-20T12:24:04.510Z,994.18
2018-12-20T12:25:04.493Z,994.20
2018-12-20T12:26:04.485Z,994.18
2018-12-20T12:27:04.498Z,994.19
2018-12-20T12:28:04.533Z,994.12